createdAt,value
2018-12-16T00:01:27.042Z,-6
2018-12-16T00:06:27.072Z,-6
2018-12-16T00:11:27.033Z,-6.1
2018-12-16T00:16:27.093Z,-6.2
2018-12-16T00:21:27.057Z,-6.2
2018-12-16T00:26:27.065Z,-6.3
2018-12-16T00:31:27.052Z,-6.4
2018-12-16T00:36:27.076Z,-6.4
2018-12-16T00:41:27.064Z,-6.5
2018-12-16T00:46:27.048Z,-6.6
2018-12-16T00:51:27.055Z,-6.7
2018-12-16T00:56:27.009Z,-6.7
2018-12-16T01:01:27.092Z,-6.8
2018-12-16T01:06:27.025Z,-6.8
2018-12-16T01:11:27.067Z,-6.9
2018-12-16T01:16:27.097Z,-6.9
2018-12-16T01:21:27.080Z,-7
2018-12-16T01:26:27.066Z,-7
2018-12-16T01:31:27.076Z,-7.1
2018-12-16T01:36:27.062Z,-7.2
2018-12-16T01:41:27.102Z,-7.2
2018-12-16T01:46:27.097Z,-7.3
2018-12-16T01:51:27.098Z,-7.3
2018-12-16T01:56:27.055Z,-7.4
2018-12-16T02:01:27.098Z,-7.4
2018-12-16T02:06:27.085Z,-7.5
2018-12-16T02:11:27.096Z,-7.5
2018-12-16T02:16:27.120Z,-7.6
2018-12-16T02:21:27.106Z,-7.7
2018-12-16T02:26:27.129Z,-7.8
2018-12-16T02:31:27.109Z,-7.8
2018-12-16T02:36:27.102Z,-7.8
2018-12-16T02:41:27.122Z,-7.8
2018-12-16T02:46:27.100Z,-7.9
2018-12-16T02:51:27.119Z,-7.9
2018-12-16T02:56:28.687Z,-7.9
2018-12-16T03:01:28.699Z,-8
2018-12-16T03:06:28.679Z,-8
2018-12-16T03:11:28.691Z,-8
2018-12-16T03:16:28.667Z,-8.1
2018-12-16T03:21:28.698Z,-8.1
2018-12-16T03:26:35.590Z,-8.2
2018-12-16T03:31:28.707Z,-8.2
2018-12-16T03:36:28.706Z,-8.2
2018-12-16T03:41:28.711Z,-8.3
2018-12-16T03:46:28.687Z,-8.3
2018-12-16T03:51:28.694Z,-8.4
2018-12-16T03:56:28.741Z,-8.5
2018-12-16T04:01:28.668Z,-8.5
2018-12-16T04:06:28.716Z,-8.5
2018-12-16T04:11:28.709Z,-8.5
2018-12-16T04:16:28.720Z,-8.6
2018-12-16T04:21:28.732Z,-8.6
2018-12-16T04:26:28.716Z,-8.6
2018-12-16T04:31:28.727Z,-8.7
2018-12-16T04:36:28.742Z,-8.7
2018-12-16T04:41:28.728Z,-8.7
2018-12-16T04:46:28.752Z,-8.8
2018-12-16T04:51:28.704Z,-8.9
2018-12-16T04:56:28.750Z,-8.9
2018-12-16T05:01:28.703Z,-8.9
2018-12-16T05:06:28.736Z,-8.9
2018-12-16T05:11:28.750Z,-8.9
2018-12-16T05:16:28.762Z,-9
2018-12-16T05:21:28.741Z,-9
2018-12-16T05:26:28.760Z,-8.9
2018-12-16T05:31:28.745Z,-9
2018-12-16T05:36:28.753Z,-9.1
2018-12-16T05:41:28.756Z,-9
2018-12-16T05:46:28.765Z,-9.1
2018-12-16T05:51:28.785Z,-9.1
2018-12-16T05:56:28.764Z,-9.1
2018-12-16T06:01:28.794Z,-9.1
2018-12-16T06:06:28.745Z,-9.2
2018-12-16T06:11:28.792Z,-9.2
2018-12-16T06:16:28.784Z,-9.2
2018-12-16T06:21:29.018Z,-9.1
2018-12-16T06:26:28.782Z,-9.2
2018-12-16T06:31:28.809Z,-9.1
2018-12-16T06:36:28.796Z,-9.2
2018-12-16T06:41:28.785Z,-9.1
2018-12-16T06:46:28.801Z,-9.1
2018-12-16T06:51:28.811Z,-9.1
2018-12-16T06:56:28.812Z,-9.2
2018-12-16T07:01:28.807Z,-9.2
2018-12-16T07:06:28.839Z,-9.1
2018-12-16T07:11:28.822Z,-9.1
2018-12-16T07:16:28.811Z,-9
2018-12-16T07:21:28.816Z,-8.9
2018-12-16T07:26:28.817Z,-8.8
2018-12-16T07:31:28.827Z,-8.6
2018-12-16T07:36:28.821Z,-8.5
2018-12-16T07:41:28.843Z,-8.3
2018-12-16T07:46:28.834Z,-8.1
2018-12-16T07:51:28.831Z,-7.8
2018-12-16T07:56:28.854Z,-7.5
2018-12-16T08:01:28.915Z,-7.2
2018-12-16T08:06:28.845Z,-7.1
2018-12-16T08:11:28.847Z,-7
2018-12-16T08:16:28.832Z,-7
2018-12-16T08:21:28.911Z,-6.9
2018-12-16T08:26:28.864Z,-6.8
2018-12-16T08:31:28.927Z,-6.6
2018-12-16T08:36:28.850Z,-6.5
2018-12-16T08:41:28.859Z,-6.2
2018-12-16T08:46:28.845Z,-5.9
2018-12-16T08:51:28.865Z,-5.7
2018-12-16T08:56:28.872Z,-5.5
2018-12-16T09:01:29.333Z,-5.3
2018-12-16T09:06:28.870Z,-5.2
2018-12-16T09:11:28.859Z,-5
2018-12-16T09:16:28.865Z,-4.8
2018-12-16T09:21:28.890Z,-4.6
2018-12-16T09:26:28.911Z,-4.4
2018-12-16T09:31:28.851Z,-4.2
2018-12-16T09:36:28.894Z,-3.8
2018-12-16T09:41:28.905Z,-3.5
2018-12-16T09:46:30.003Z,-3.3
2018-12-16T09:51:28.918Z,-3.1
2018-12-16T09:56:28.912Z,-2.9
2018-12-16T10:01:28.949Z,-2.7
2018-12-16T10:06:28.895Z,-2.5
2018-12-16T10:11:28.900Z,-2.5
2018-12-16T10:16:28.900Z,-2.5
2018-12-16T10:21:28.890Z,-2.4
2018-12-16T10:26:28.915Z,-2.4
2018-12-16T10:31:28.924Z,-2.5
2018-12-16T10:36:28.930Z,-2.4
2018-12-16T10:41:28.919Z,-2.3
2018-12-16T10:46:28.919Z,-2.2
2018-12-16T10:51:28.932Z,-2.2
2018-12-16T10:56:28.919Z,-2.2
2018-12-16T11:01:29.067Z,-2.1
2018-12-16T11:06:28.950Z,-2
2018-12-16T11:11:28.953Z,-1.9
2018-12-16T11:16:28.945Z,-1.9
2018-12-16T11:21:28.938Z,-1.9
2018-12-16T11:26:28.955Z,-1.9
2018-12-16T11:31:28.927Z,-1.9
2018-12-16T11:36:28.948Z,-1.8
2018-12-16T11:41:28.959Z,-1.8
2018-12-16T11:46:28.949Z,-1.8
2018-12-16T11:51:28.986Z,-1.8
2018-12-16T11:56:28.979Z,-1.7
2018-12-16T12:01:29.042Z,-1.7
2018-12-16T12:06:28.966Z,-1.7
2018-12-16T12:11:28.978Z,-1.7
2018-12-16T12:16:28.920Z,-1.7
2018-12-16T12:21:28.971Z,-1.8
2018-12-16T12:26:29.010Z,-1.7
2018-12-16T12:31:28.985Z,-1.7
2018-12-16T12:36:29.017Z,-1.6
2018-12-16T12:41:29.049Z,-1.6
2018-12-16T12:46:29.403Z,-1.6
2018-12-16T12:51:29.082Z,-1.7
2018-12-16T12:56:28.948Z,-1.7
2018-12-16T13:01:29.020Z,-1.7
2018-12-16T13:06:28.990Z,-1.8
2018-12-16T13:11:29.005Z,-1.8
2018-12-16T13:16:29.038Z,-1.8
2018-12-16T13:21:29.144Z,-1.7
2018-12-16T13:26:29.037Z,-1.8
2018-12-16T13:31:29.080Z,-1.8
2018-12-16T13:36:29.084Z,-1.9
2018-12-16T13:41:29.018Z,-1.9
2018-12-16T13:46:28.984Z,-1.9
2018-12-16T13:51:29.011Z,-1.9
2018-12-16T13:56:29.150Z,-1.9
2018-12-16T14:01:29.191Z,-1.9
2018-12-16T14:06:29.065Z,-2
2018-12-16T14:11:29.015Z,-2
2018-12-16T14:16:29.035Z,-2.1
2018-12-16T14:21:29.094Z,-2.1
2018-12-16T14:26:29.042Z,-2.1
2018-12-16T14:31:29.049Z,-2.1
2018-12-16T14:36:29.057Z,-2.1
2018-12-16T14:41:29.057Z,-2.1
2018-12-16T14:46:29.215Z,-2.2
2018-12-16T14:51:29.063Z,-2.2
2018-12-16T14:56:29.063Z,-2.3
2018-12-16T15:01:29.064Z,-2.3
2018-12-16T15:06:29.058Z,-2.3
2018-12-16T15:11:29.192Z,-2.3
2018-12-16T15:16:29.020Z,-2.3
2018-12-16T15:21:29.063Z,-2.3
2018-12-16T15:26:29.067Z,-2.3
2018-12-16T15:31:29.066Z,-2.3
2018-12-16T15:36:29.091Z,-2.3
2018-12-16T15:41:29.056Z,-2.3
2018-12-16T15:46:29.076Z,-2.3
2018-12-16T15:51:29.084Z,-2.3
2018-12-16T15:56:29.066Z,-2.3
2018-12-16T16:01:29.113Z,-2.3
2018-12-16T16:06:29.101Z,-2.3
2018-12-16T16:11:29.043Z,-2.3
2018-12-16T16:16:29.086Z,-2.3
2018-12-16T16:21:29.159Z,-2.3
2018-12-16T16:26:29.231Z,-2.3
2018-12-16T16:31:29.179Z,-2.3
2018-12-16T16:36:29.166Z,-2.3
2018-12-16T16:41:29.626Z,-2.3
2018-12-16T16:46:29.296Z,-2.3
2018-12-16T16:51:29.565Z,-2.2
2018-12-16T16:56:29.124Z,-2.3
2018-12-16T17:01:29.129Z,-2.2
2018-12-16T17:06:29.565Z,-2.2
2018-12-16T17:11:29.326Z,-2.2
2018-12-16T17:16:29.125Z,-2.2
2018-12-16T17:21:29.143Z,-2.2
2018-12-16T17:26:30.148Z,-2.2
2018-12-16T17:31:29.435Z,-2.2
2018-12-16T17:36:29.662Z,-2.1
2018-12-16T17:41:29.610Z,-2.1
2018-12-16T17:46:29.175Z,-2.1
2018-12-16T17:51:29.339Z,-2.1
2018-12-16T17:56:29.195Z,-2.1
2018-12-16T18:01:29.159Z,-2.1
2018-12-16T18:06:29.152Z,-2.1
2018-12-16T18:11:29.131Z,-2
2018-12-16T18:16:29.161Z,-2
2018-12-16T18:21:29.431Z,-2
2018-12-16T18:26:29.182Z,-2
2018-12-16T18:31:29.249Z,-1.9
2018-12-16T18:36:29.323Z,-1.9
2018-12-16T18:41:29.179Z,-1.9
2018-12-16T18:46:29.192Z,-1.9
2018-12-16T18:51:29.197Z,-1.9
2018-12-16T18:56:29.159Z,-1.9
2018-12-16T19:01:29.248Z,-1.9
2018-12-16T19:06:29.562Z,-1.9
2018-12-16T19:11:29.316Z,-1.9
2018-12-16T19:16:29.228Z,-1.9
2018-12-16T19:21:29.326Z,-1.9
2018-12-16T19:26:29.191Z,-1.9
2018-12-16T19:31:29.200Z,-1.9
2018-12-16T19:36:29.196Z,-1.9
2018-12-16T19:41:29.351Z,-1.9
2018-12-16T19:46:29.223Z,-1.9
2018-12-16T19:51:29.347Z,-1.9
2018-12-16T19:56:29.200Z,-1.9
2018-12-16T20:01:29.365Z,-1.9
2018-12-16T20:06:29.229Z,-1.9
2018-12-16T20:11:29.162Z,-1.9
2018-12-16T20:16:29.220Z,-1.9
2018-12-16T20:21:29.335Z,-1.9
2018-12-16T20:26:29.322Z,-1.8
2018-12-16T20:31:29.259Z,-1.8
2018-12-16T20:36:29.303Z,-1.8
2018-12-16T20:41:29.275Z,-1.8
2018-12-16T20:46:29.260Z,-1.8
2018-12-16T20:51:29.171Z,-1.7
2018-12-16T20:56:29.266Z,-1.7
2018-12-16T21:01:29.245Z,-1.7
2018-12-16T21:06:30.721Z,-1.7
2018-12-16T21:11:29.250Z,-1.7
2018-12-16T21:16:29.264Z,-1.7
2018-12-16T21:21:29.208Z,-1.7
2018-12-16T21:26:29.381Z,-1.7
2018-12-16T21:31:29.228Z,-1.6
2018-12-16T21:36:29.255Z,-1.6
2018-12-16T21:41:29.263Z,-1.6
2018-12-16T21:46:29.265Z,-1.6
2018-12-16T21:51:29.259Z,-1.6
2018-12-16T21:56:29.249Z,-1.6
2018-12-16T22:01:29.254Z,-1.6
2018-12-16T22:06:29.285Z,-1.5
2018-12-16T22:11:29.276Z,-1.6
2018-12-16T22:16:29.251Z,-1.6
2018-12-16T22:21:29.297Z,-1.6
2018-12-16T22:26:29.295Z,-1.5
2018-12-16T22:31:29.298Z,-1.5
2018-12-16T22:36:29.289Z,-1.6
2018-12-16T22:41:29.283Z,-1.6
2018-12-16T22:46:29.279Z,-1.6
2018-12-16T22:51:29.271Z,-1.6
2018-12-16T22:56:29.303Z,-1.6
2018-12-16T23:01:29.302Z,-1.7
2018-12-16T23:06:29.314Z,-1.8
2018-12-16T23:11:29.312Z,-1.9
2018-12-16T23:16:29.288Z,-2.1
2018-12-16T23:21:29.302Z,-2.2
2018-12-16T23:26:29.317Z,-2.3
2018-12-16T23:31:29.298Z,-2.4
2018-12-16T23:36:29.302Z,-2.5
2018-12-16T23:41:29.309Z,-2.6
2018-12-16T23:46:29.322Z,-2.7
2018-12-16T23:51:29.318Z,-2.8
2018-12-16T23:56:29.336Z,-3
